Hiles, Wisconsin
Current Conditions -  °F | °C
As of 2:35 PM on Thursday 23 Oct 2014 (Local Time) from KEGV Reporting Station
Light Rain Light Rain  
Wind Chill: 42°   Ceiling: 500
Heat Index: 44°   Visibility: 5mi
Dew Point: 44°   Wind: 5mph
Humidity: 99%   Direction: 210°SSW
Pressure: 30"   Gusts: NA
Location:  45.724°N, 88.8585°W
Report Text: KEGV 231935Z AUTO 21004KT 5SM -RA OVC005 07/07 A3000 RMK AO2 T00680067
Loading
Personal Weather Stations






























Interactive Weather Map
Tropical Storm Tracking
New forecast layout! Learn more

10-Day Weather Forecast

Advertisements
Track Severe Weather on mobile